This is the latest recevied weather packets stored in our database for station/object IW0RQH-13. If no packets are shown the sender has not sent any weather packets the latest 10 day(s).
| Time | Temp. | Humidity | Pressure | Rain* | Wind** | Luminosity | Snow |
|---|---|---|---|---|---|---|---|
| 1778018046 | 16.11° C | 75% | 1014.2 hPa | 0 mm | - | 0 W/m² | - |
| 1778016964 | 16.11° C | 75% | 1013.9 hPa | 0 mm | - | 0 W/m² | - |
| 1778011743 | 16.67° C | 73% | 1014.1 hPa | 0 mm | - | 0 W/m² | - |
| 1778010306 | 16.67° C | 71% | 1013.8 hPa | 0 mm | - | 0 W/m² | - |
| 1778007608 | 16.67° C | 72% | 1013.7 hPa | 0 mm | - | 0 W/m² | - |
| 1778005086 | 17.22° C | 72% | 1013.3 hPa | 0 mm | - | 0 W/m² | - |
| 1778000065 | 17.78° C | 69% | 1013.3 hPa | 0 mm | - | 20 W/m² | - |
| 1777995363 | 18.33° C | 69% | 1013.5 hPa | 0 mm | - | 52 W/m² | - |
| 1777993206 | 18.33° C | 68% | 1013.7 hPa | 0 mm | - | 83 W/m² | - |
| 1777989624 | 18.33° C | 68% | 1013.9 hPa | 0 mm | - | 156 W/m² | - |
| 1777986006 | 17.22° C | 70% | 1014.2 hPa | 0 mm | - | 272 W/m² | - |
| 1777985103 | 17.22° C | 71% | 1014.5 hPa | 0 mm | - | 150 W/m² | - |
| 1777984563 | 16.67° C | 71% | 1014.5 hPa | 0 mm | - | 252 W/m² | - |
| 1777982946 | 16.67° C | 72% | 1014.9 hPa | 0 mm | - | 647 W/m² | - |
| 1777980423 | 15.56° C | 79% | 1015.4 hPa | 0 mm | - | 92 W/m² | - |
| 1777977904 | 14.44° C | 81% | 1015.1 hPa | 0 mm | - | 70 W/m² | - |
| 1777973764 | 14.44° C | 85% | 1015.4 hPa | 0 mm | - | 84 W/m² | - |
| 1777973224 | 13.89° C | 84% | 1015.1 hPa | 0 mm | - | 84 W/m² | - |
| 1777967643 | 13.33° C | 87% | 1015.3 hPa | 0.25 mm | - | 86 W/m² | - |
| 1777966570 | 12.78° C | 90% | 1015.2 hPa | 0.51 mm | - | 55 W/m² | - |
| 1777964946 | 12.78° C | 89% | 1015.2 hPa | 1.27 mm | - | 54 W/m² | - |
| 1777963524 | 12.78° C | 89% | 1015.2 hPa | 1.27 mm | - | 34 W/m² | - |
| 1777961345 | 12.78° C | 86% | 1014.5 hPa | 0.25 mm | - | 35 W/m² | - |
| 1777956303 | 12.22° C | 89% | 1014.4 hPa | 2.29 mm | - | 18 W/m² | - |
| 1777953604 | 12.78° C | 84% | 1015.1 hPa | 0.51 mm | - | 0 W/m² | - |
* Rain latest hour (hover to see other rain measurements)
** Current wind speed in m/s (hover to see current wind gust speed)